createdAt,value
2022-10-09T00:06:32.187Z,97
2022-10-09T00:16:32.492Z,97
2022-10-09T00:26:32.966Z,97
2022-10-09T00:36:33.223Z,97
2022-10-09T00:46:33.914Z,97
2022-10-09T00:56:34.006Z,97
2022-10-09T01:06:34.900Z,97
2022-10-09T01:16:35.615Z,97
2022-10-09T01:26:36.709Z,97
2022-10-09T01:36:37.137Z,97
2022-10-09T01:46:37.676Z,97
2022-10-09T01:56:37.874Z,97
2022-10-09T02:06:38.923Z,97
2022-10-09T02:16:39.453Z,97
2022-10-09T02:26:40.203Z,98
2022-10-09T02:36:40.818Z,98
2022-10-09T02:46:41.169Z,98
2022-10-09T02:56:41.457Z,98
2022-10-09T03:06:42.402Z,98
2022-10-09T03:16:43.114Z,98
2022-10-09T03:26:43.509Z,98
2022-10-09T03:36:43.985Z,98
2022-10-09T03:46:44.578Z,98
2022-10-09T03:56:45.406Z,98
2022-10-09T04:06:45.821Z,98
2022-10-09T04:16:46.273Z,98
2022-10-09T04:26:47.205Z,98
2022-10-09T04:36:47.854Z,98
2022-10-09T04:56:49.200Z,98
2022-10-09T05:06:49.819Z,98
2022-10-09T05:17:12.294Z,98
2022-10-09T05:26:50.718Z,98
2022-10-09T05:36:50.954Z,99
2022-10-09T06:06:53.171Z,99
2022-10-09T06:16:53.786Z,99
2022-10-09T06:26:53.798Z,99
2022-10-09T06:36:54.341Z,99
2022-10-09T06:56:54.806Z,99
2022-10-09T07:06:55.059Z,99
2022-10-09T07:16:55.486Z,99
2022-10-09T07:26:55.953Z,99
2022-10-09T07:36:56.374Z,99
2022-10-09T07:46:57.015Z,99
2022-10-09T07:56:57.923Z,98
2022-10-09T08:06:58.739Z,97
2022-10-09T08:16:59.704Z,96
2022-10-09T08:27:00.639Z,95
2022-10-09T08:47:01.315Z,94
2022-10-09T08:57:02.399Z,93
2022-10-09T09:07:03.287Z,92
2022-10-09T09:17:04.210Z,91
2022-10-09T09:27:04.811Z,89
2022-10-09T09:37:05.834Z,88
2022-10-09T09:57:17.232Z,86
2022-10-09T10:07:06.473Z,83
2022-10-09T10:17:06.818Z,83
2022-10-09T10:27:07.409Z,80
2022-10-09T10:37:07.872Z,76
2022-10-09T10:47:08.247Z,77
2022-10-09T10:57:09.126Z,74
2022-10-09T11:07:10.208Z,73
2022-10-09T11:17:11.075Z,73
2022-10-09T11:37:12.512Z,71
2022-10-09T11:47:12.990Z,69
2022-10-09T11:57:15.392Z,66
2022-10-09T12:07:13.754Z,65
2022-10-09T12:17:14.555Z,66
2022-10-09T12:27:15.431Z,65
2022-10-09T12:47:17.084Z,63
2022-10-09T12:57:17.210Z,63
2022-10-09T13:07:18.015Z,63
2022-10-09T13:17:18.801Z,62
2022-10-09T13:27:19.524Z,61
2022-10-09T13:57:21.168Z,61
2022-10-09T14:07:21.952Z,61
2022-10-09T14:17:22.952Z,61
2022-10-09T14:27:23.962Z,60
2022-10-09T14:37:40.319Z,60
2022-10-09T14:47:25.323Z,60
2022-10-09T14:57:25.815Z,59
2022-10-09T15:07:26.804Z,61
2022-10-09T15:17:27.458Z,60
2022-10-09T15:27:27.675Z,61
2022-10-09T15:37:28.043Z,62
2022-10-09T15:47:49.776Z,62
2022-10-09T15:57:28.907Z,63
2022-10-09T16:17:30.326Z,66
2022-10-09T16:27:30.783Z,67
2022-10-09T16:37:31.630Z,68
2022-10-09T16:47:32.610Z,69
2022-10-09T16:57:33.516Z,71
2022-10-09T17:07:33.631Z,73
2022-10-09T17:17:34.546Z,76
2022-10-09T17:37:36.051Z,79
2022-10-09T17:47:36.833Z,81
2022-10-09T17:57:37.840Z,82
2022-10-09T18:07:38.231Z,84
2022-10-09T18:27:39.896Z,86
2022-10-09T18:37:40.028Z,87
2022-10-09T18:47:41.053Z,87
2022-10-09T18:57:41.216Z,89
2022-10-09T19:07:41.564Z,89
2022-10-09T19:17:42.560Z,89
2022-10-09T19:37:43.867Z,90
2022-10-09T19:47:44.764Z,90
2022-10-09T19:57:45.611Z,91
2022-10-09T20:07:45.980Z,91
2022-10-09T20:17:46.179Z,91
2022-10-09T20:27:47.186Z,91
2022-10-09T20:37:47.845Z,92
2022-10-09T20:47:48.036Z,92
2022-10-09T20:57:51.786Z,92
2022-10-09T21:07:49.455Z,92
2022-10-09T21:17:49.613Z,92
2022-10-09T21:27:50.177Z,93
2022-10-09T21:37:50.975Z,93
2022-10-09T21:47:51.274Z,93
2022-10-09T21:57:52.300Z,93
2022-10-09T22:07:52.461Z,93
2022-10-09T22:17:53.206Z,93
2022-10-09T22:27:53.900Z,93
2022-10-09T22:37:54.480Z,93
2022-10-09T22:47:54.557Z,93
2022-10-09T22:57:55.074Z,93
2022-10-09T23:07:55.833Z,93
2022-10-09T23:17:56.464Z,93
2022-10-09T23:27:57.165Z,93
2022-10-09T23:37:57.561Z,93
2022-10-09T23:47:58.199Z,93
2022-10-09T23:57:58.635Z,93
